Shijiazhuang, China
Current Conditions -  °F | °C
As of 10:00 PM on Friday 19 Dec 2014 (Local Time) from ZBSJ Reporting Station
Clear Clear  
Wind Chill: 23°   Ceiling: Unl
Heat Index: 32°   Visibility: 6mi
Dew Point:   Wind: 11mph
Humidity: 25%   Direction: 350°N
Pressure: 30.42"   Gusts: NA
Location:  38.05°N, 114.48°E
Report Text: ZBSJ 191400Z 35005MPS CAVOK 00/M18 Q1030 NOSIG
Loading
Personal Weather Stations






























Interactive Weather Map New forecast layout! Learn more

10-Day Weather Forecast

Advertisements
Track Severe Weather on mobile